createdAt,value
2019-04-12T00:01:10.390Z,7.20
2019-04-12T00:03:36.627Z,7.10
2019-04-12T00:06:03.353Z,7.10
2019-04-12T00:08:30.920Z,7.10
2019-04-12T00:10:57.835Z,7.10
2019-04-12T00:13:24.048Z,7.10
2019-04-12T00:15:50.279Z,7.00
2019-04-12T00:18:16.516Z,7.00
2019-04-12T00:20:44.638Z,7.10
2019-04-12T00:23:10.871Z,7.10
2019-04-12T00:25:37.114Z,7.00
2019-04-12T00:28:03.356Z,6.90
2019-04-12T00:30:29.687Z,6.90
2019-04-12T00:32:55.914Z,6.90
2019-04-12T00:35:22.297Z,6.90
2019-04-12T00:37:48.585Z,6.90
2019-04-12T00:40:14.827Z,6.90
2019-04-12T00:42:41.099Z,6.80
2019-04-12T00:45:07.622Z,6.80
2019-04-12T00:47:34.518Z,6.80
2019-04-12T00:50:01.022Z,6.90
2019-04-12T00:52:27.291Z,6.70
2019-04-12T00:54:53.775Z,6.70
2019-04-12T00:57:20.006Z,6.60
2019-04-12T00:59:47.506Z,6.60
2019-04-12T01:02:16.234Z,6.60
2019-04-12T01:04:46.646Z,6.60
2019-04-12T01:07:12.960Z,6.50
2019-04-12T01:09:39.387Z,6.50
2019-04-12T01:12:05.745Z,6.50
2019-04-12T01:14:32.495Z,6.50
2019-04-12T01:17:00.735Z,6.50
2019-04-12T01:19:27.060Z,6.40
2019-04-12T01:21:54.409Z,6.40
2019-04-12T01:24:20.632Z,6.40
2019-04-12T01:26:47.174Z,6.30
2019-04-12T01:29:15.661Z,6.30
2019-04-12T01:31:41.632Z,6.20
2019-04-12T01:34:07.880Z,6.20
2019-04-12T01:36:34.087Z,6.20
2019-04-12T01:39:00.329Z,6.20
2019-04-12T01:41:26.545Z,6.20
2019-04-12T01:43:52.772Z,6.20
2019-04-12T01:46:18.996Z,6.20
2019-04-12T01:48:45.243Z,6.20
2019-04-12T01:51:11.488Z,6.20
2019-04-12T01:53:37.846Z,6.10
2019-04-12T01:56:04.371Z,6.10
2019-04-12T01:58:30.600Z,6.00
2019-04-12T02:00:56.827Z,6.00
2019-04-12T02:03:23.065Z,5.90
2019-04-12T02:05:49.297Z,5.80
2019-04-12T02:08:15.560Z,5.70
2019-04-12T02:10:42.985Z,5.70
2019-04-12T02:13:09.440Z,5.70
2019-04-12T02:15:35.871Z,5.70
2019-04-12T02:18:02.110Z,5.60
2019-04-12T02:20:28.364Z,5.60
2019-04-12T02:22:54.695Z,5.50
2019-04-12T02:25:24.400Z,5.50
2019-04-12T02:27:49.120Z,5.40
2019-04-12T02:30:17.369Z,5.30
2019-04-12T02:32:45.488Z,5.30
2019-04-12T02:35:13.643Z,5.30
2019-04-12T02:37:39.887Z,5.30
2019-04-12T02:40:06.513Z,5.20
2019-04-12T02:42:35.093Z,5.20
2019-04-12T02:45:03.320Z,5.10
2019-04-12T02:47:35.628Z,5.10
2019-04-12T02:50:14.501Z,5.00
2019-04-12T02:52:49.356Z,5.00
2019-04-12T02:55:17.773Z,5.00
2019-04-12T02:57:46.224Z,5.00
2019-04-12T03:00:14.586Z,5.00
2019-04-12T03:02:41.097Z,5.00
2019-04-12T03:05:07.905Z,4.90
2019-04-12T03:07:34.416Z,4.80
2019-04-12T03:10:01.233Z,4.80
2019-04-12T03:12:32.792Z,4.80
2019-04-12T03:15:02.369Z,4.80
2019-04-12T03:17:28.823Z,4.70
2019-04-12T03:19:55.482Z,4.80
2019-04-12T03:22:22.195Z,4.70
2019-04-12T03:24:48.430Z,4.70
2019-04-12T03:27:14.821Z,4.70
2019-04-12T03:29:41.167Z,4.70
2019-04-12T03:32:07.917Z,4.70
2019-04-12T03:34:34.851Z,4.70
2019-04-12T03:37:01.184Z,4.70
2019-04-12T03:39:27.432Z,4.60
2019-04-12T03:41:54.062Z,4.60
2019-04-12T03:44:20.807Z,4.60
2019-04-12T03:46:47.024Z,4.50
2019-04-12T03:49:13.714Z,4.50
2019-04-12T03:51:39.933Z,4.50
2019-04-12T03:54:06.456Z,4.50
2019-04-12T03:56:33.093Z,4.50
2019-04-12T03:59:18.025Z,4.40
2019-04-12T04:01:45.079Z,4.40
2019-04-12T04:04:11.877Z,4.40
2019-04-12T04:06:40.960Z,4.30
2019-04-12T04:09:07.170Z,4.30
2019-04-12T04:11:33.802Z,4.30
2019-04-12T04:14:01.233Z,4.30
2019-04-12T04:16:28.078Z,4.20
2019-04-12T04:18:54.312Z,4.20
2019-04-12T04:21:22.629Z,4.20
2019-04-12T04:23:53.750Z,4.20
2019-04-12T04:26:23.989Z,4.20
2019-04-12T04:28:52.352Z,4.20
2019-04-12T04:31:29.758Z,4.20
2019-04-12T04:33:56.018Z,4.20
2019-04-12T04:36:23.346Z,4.30
2019-04-12T04:38:50.009Z,4.30
2019-04-12T04:41:16.540Z,4.30
2019-04-12T04:43:42.889Z,4.40
2019-04-12T04:46:09.427Z,4.40
2019-04-12T04:48:36.486Z,4.40
2019-04-12T04:51:03.197Z,4.50
2019-04-12T04:53:29.569Z,4.50
2019-04-12T04:55:57.028Z,4.50
2019-04-12T04:58:23.527Z,4.50
2019-04-12T05:00:51.677Z,4.50
2019-04-12T05:03:18.518Z,4.50
2019-04-12T05:05:44.864Z,4.50
2019-04-12T05:08:11.301Z,4.50
2019-04-12T05:10:37.831Z,4.50
2019-04-12T05:13:04.799Z,4.50
2019-04-12T05:15:31.856Z,4.50
2019-04-12T05:17:58.607Z,4.60
2019-04-12T05:20:25.344Z,4.60
2019-04-12T05:22:52.301Z,4.60
2019-04-12T05:25:19.285Z,4.50
2019-04-12T05:27:45.815Z,4.50
2019-04-12T05:30:12.782Z,4.50
2019-04-12T05:32:39.316Z,4.40
2019-04-12T05:35:06.217Z,4.40
2019-04-12T05:37:32.868Z,4.40
2019-04-12T05:39:59.120Z,4.30
2019-04-12T05:42:25.363Z,4.40
2019-04-12T05:44:51.720Z,4.40
2019-04-12T05:47:19.978Z,4.40
2019-04-12T05:49:51.283Z,4.50
2019-04-12T05:52:17.592Z,4.50
2019-04-12T05:54:43.905Z,4.50
2019-04-12T05:57:10.299Z,4.50
2019-04-12T05:59:38.066Z,4.50
2019-04-12T06:02:16.213Z,4.50
2019-04-12T06:04:42.590Z,4.50
2019-04-12T06:07:09.078Z,4.50
2019-04-12T06:09:35.427Z,4.50
2019-04-12T06:12:01.858Z,4.50
2019-04-12T06:14:28.299Z,4.60
2019-04-12T06:17:01.115Z,4.60
2019-04-12T06:19:24.180Z,4.60
2019-04-12T06:21:52.477Z,4.70
2019-04-12T06:24:39.200Z,4.70
2019-04-12T06:27:10.712Z,4.70
2019-04-12T06:29:37.051Z,4.60
2019-04-12T06:32:03.748Z,4.60
2019-04-12T06:34:30.090Z,4.60
2019-04-12T06:36:56.435Z,4.60
2019-04-12T06:39:22.745Z,4.60
2019-04-12T06:41:49.017Z,4.60
2019-04-12T06:44:15.251Z,4.60
2019-04-12T06:46:41.495Z,4.70
2019-04-12T06:49:07.942Z,4.80
2019-04-12T06:51:34.300Z,4.80
2019-04-12T06:54:00.588Z,4.90
2019-04-12T06:59:01.605Z,5.00
2019-04-12T07:01:29.859Z,5.00
2019-04-12T07:04:14.612Z,5.00
2019-04-12T07:06:40.920Z,5.00
2019-04-12T07:09:07.208Z,5.00
2019-04-12T07:11:33.448Z,5.00
2019-04-12T07:14:00.066Z,5.10
2019-04-12T07:16:26.310Z,5.10
2019-04-12T07:18:52.530Z,5.20
2019-04-12T07:21:18.879Z,5.20
2019-04-12T07:23:45.743Z,5.30
2019-04-12T07:26:12.114Z,5.40
2019-04-12T07:28:38.348Z,5.40
2019-04-12T07:31:04.574Z,5.50
2019-04-12T07:33:30.831Z,5.60
2019-04-12T07:35:57.038Z,5.50
2019-04-12T07:38:23.254Z,5.70
2019-04-12T07:40:49.473Z,5.80
2019-04-12T07:43:15.728Z,5.90
2019-04-12T07:45:42.018Z,6.00
2019-04-12T07:48:08.290Z,6.10
2019-04-12T07:50:42.105Z,6.20
2019-04-12T07:53:10.070Z,6.30
2019-04-12T07:55:54.797Z,6.40
2019-04-12T07:58:39.708Z,6.50
2019-04-12T08:01:07.948Z,6.50
2019-04-12T08:03:41.983Z,6.60
2019-04-12T08:06:21.942Z,6.60
2019-04-12T08:08:49.571Z,6.70
2019-04-12T08:11:15.798Z,6.80
2019-04-12T08:13:42.081Z,6.80
2019-04-12T08:16:08.398Z,6.90
2019-04-12T08:18:34.743Z,6.90
2019-04-12T08:21:00.970Z,7.00
2019-04-12T08:23:27.245Z,6.90
2019-04-12T08:25:53.902Z,7.00
2019-04-12T08:28:20.418Z,7.00
2019-04-12T08:30:48.803Z,7.10
2019-04-12T08:33:14.885Z,7.20
2019-04-12T08:35:41.147Z,7.00
2019-04-12T08:38:07.383Z,7.00
2019-04-12T08:40:34.131Z,7.00
2019-04-12T08:43:00.348Z,7.10
2019-04-12T08:45:26.593Z,7.20
2019-04-12T08:47:52.915Z,7.30
2019-04-12T08:50:19.168Z,7.50
2019-04-12T08:52:45.373Z,7.50
2019-04-12T08:55:11.898Z,7.50
2019-04-12T08:57:38.142Z,7.50
2019-04-12T09:00:06.762Z,7.60
2019-04-12T09:02:33.017Z,7.70
2019-04-12T09:04:59.297Z,7.70
2019-04-12T09:07:25.689Z,7.70
2019-04-12T09:09:54.130Z,7.70
2019-04-12T09:12:20.122Z,7.70
2019-04-12T09:14:46.446Z,7.70
2019-04-12T09:17:12.709Z,7.70
2019-04-12T09:19:46.921Z,7.70
2019-04-12T09:22:15.137Z,7.70
2019-04-12T09:24:52.311Z,7.70
2019-04-12T09:27:18.640Z,7.70
2019-04-12T09:29:44.875Z,7.70
2019-04-12T09:32:11.117Z,7.80
2019-04-12T09:34:37.346Z,7.80
2019-04-12T09:37:03.671Z,8.00
2019-04-12T09:39:29.918Z,8.10
2019-04-12T09:41:56.663Z,8.00
2019-04-12T09:44:22.880Z,8.10
2019-04-12T09:46:49.112Z,8.00
2019-04-12T09:49:15.356Z,8.00
2019-04-12T09:51:41.590Z,8.10
2019-04-12T09:54:07.928Z,8.20
2019-04-12T09:56:34.261Z,8.20
2019-04-12T09:59:00.486Z,8.20
2019-04-12T10:01:26.731Z,8.30
2019-04-12T10:03:52.951Z,8.40
2019-04-12T10:06:19.181Z,8.50
2019-04-12T10:08:45.427Z,8.60
2019-04-12T10:11:11.685Z,8.60
2019-04-12T10:13:37.934Z,8.60
2019-04-12T10:16:04.265Z,8.70
2019-04-12T10:18:30.512Z,8.80
2019-04-12T10:20:56.722Z,8.70
2019-04-12T10:23:22.953Z,8.70
2019-04-12T10:25:49.187Z,8.80
2019-04-12T10:28:15.436Z,8.80
2019-04-12T10:30:41.694Z,8.80
2019-04-12T10:33:07.921Z,8.80
2019-04-12T10:35:34.164Z,8.80
2019-04-12T10:38:00.439Z,8.90
2019-04-12T10:40:26.667Z,9.10
2019-04-12T10:42:52.906Z,9.10
2019-04-12T10:45:33.161Z,9.20
2019-04-12T10:48:03.749Z,9.30
2019-04-12T10:50:38.159Z,9.20
2019-04-12T10:53:23.221Z,9.30
2019-04-12T10:55:51.376Z,9.40
2019-04-12T10:58:17.591Z,9.40
2019-04-12T11:00:46.015Z,9.40
2019-04-12T11:03:12.294Z,9.40
2019-04-12T11:05:38.548Z,9.40
2019-04-12T11:08:04.865Z,9.50
2019-04-12T11:10:31.094Z,9.60
2019-04-12T11:12:57.346Z,9.70
2019-04-12T11:15:23.577Z,9.50
2019-04-12T11:17:49.820Z,9.60
2019-04-12T11:20:16.076Z,9.70
2019-04-12T11:22:42.330Z,9.80
2019-04-12T11:25:08.757Z,9.80
2019-04-12T11:27:35.009Z,9.80
2019-04-12T11:30:01.671Z,9.90
2019-04-12T11:32:27.918Z,9.70
2019-04-12T11:34:54.158Z,9.70
2019-04-12T11:37:20.421Z,9.60
2019-04-12T11:39:46.665Z,9.60
2019-04-12T11:42:12.889Z,9.60
2019-04-12T11:44:39.105Z,9.60
2019-04-12T11:47:05.344Z,9.60
2019-04-12T11:49:31.575Z,9.70
2019-04-12T11:51:57.818Z,9.80
2019-04-12T11:54:24.088Z,9.90
2019-04-12T11:56:50.328Z,9.90
2019-04-12T11:59:28.742Z,9.90
2019-04-12T12:01:55.615Z,9.80
2019-04-12T12:04:40.191Z,9.80
2019-04-12T12:07:23.217Z,9.70
2019-04-12T12:09:51.514Z,9.60
2019-04-12T12:12:36.461Z,9.60
2019-04-12T12:15:06.516Z,9.60
2019-04-12T12:17:34.648Z,9.60
2019-04-12T12:20:00.877Z,9.70
2019-04-12T12:22:27.118Z,9.80
2019-04-12T12:24:53.368Z,9.60
2019-04-12T12:27:19.622Z,9.60
2019-04-12T12:29:45.893Z,9.60
2019-04-12T12:32:12.144Z,9.60
2019-04-12T12:34:38.393Z,9.70
2019-04-12T12:37:04.655Z,9.70
2019-04-12T12:39:30.918Z,9.70
2019-04-12T12:41:57.171Z,9.70
2019-04-12T12:44:23.397Z,9.70
2019-04-12T12:46:49.630Z,9.70
2019-04-12T12:49:15.855Z,9.70
2019-04-12T12:51:42.093Z,9.70
2019-04-12T12:54:08.339Z,9.70
2019-04-12T12:56:34.635Z,9.70
2019-04-12T12:59:00.898Z,9.80
2019-04-12T13:01:27.260Z,9.70
2019-04-12T13:03:53.498Z,9.70
2019-04-12T13:06:19.735Z,9.70
2019-04-12T13:08:45.967Z,9.70
2019-04-12T13:11:12.209Z,9.80
2019-04-12T13:13:38.448Z,9.80
2019-04-12T13:16:04.704Z,9.80
2019-04-12T13:18:30.919Z,9.90
2019-04-12T13:20:57.211Z,9.90
2019-04-12T13:23:23.444Z,9.90
2019-04-12T13:25:49.775Z,9.90
2019-04-12T13:28:16.105Z,9.80
2019-04-12T13:30:44.350Z,9.80
2019-04-12T13:33:29.341Z,9.90
2019-04-12T13:36:03.241Z,9.90
2019-04-12T13:38:31.355Z,9.90
2019-04-12T13:40:59.414Z,9.90
2019-04-12T13:43:25.649Z,9.80
2019-04-12T13:45:52.721Z,9.90
2019-04-12T13:48:18.993Z,9.90
2019-04-12T13:50:45.298Z,9.80
2019-04-12T13:53:11.551Z,9.90
2019-04-12T13:55:37.896Z,9.90
2019-04-12T13:58:04.341Z,9.90
2019-04-12T14:00:30.579Z,9.90
2019-04-12T14:02:56.801Z,9.90
2019-04-12T14:05:23.074Z,10.00
2019-04-12T14:07:49.297Z,10.00
2019-04-12T14:10:15.850Z,10.00
2019-04-12T14:12:42.071Z,10.00
2019-04-12T14:15:08.920Z,10.00
2019-04-12T14:17:35.255Z,10.00
2019-04-12T14:20:02.264Z,10.00
2019-04-12T14:22:28.458Z,9.90
2019-04-12T14:24:54.674Z,9.90
2019-04-12T14:27:20.921Z,9.80
2019-04-12T14:29:47.184Z,9.80
2019-04-12T14:32:21.485Z,9.70
2019-04-12T14:34:49.625Z,9.80
2019-04-12T14:37:23.655Z,9.70
2019-04-12T14:39:49.994Z,9.60
2019-04-12T14:42:16.278Z,9.70
2019-04-12T14:44:53.368Z,9.70
2019-04-12T14:47:36.581Z,9.70
2019-04-12T14:50:05.636Z,9.60
2019-04-12T14:52:31.873Z,9.60
2019-04-12T14:54:58.138Z,9.60
2019-04-12T14:57:24.390Z,9.70
2019-04-12T14:59:50.653Z,9.80
2019-04-12T15:02:17.029Z,9.80
2019-04-12T15:04:43.266Z,9.80
2019-04-12T15:07:09.495Z,9.80
2019-04-12T15:09:35.871Z,9.70
2019-04-12T15:12:02.136Z,9.70
2019-04-12T15:14:28.371Z,9.70
2019-04-12T15:16:55.216Z,9.60
2019-04-12T15:19:21.444Z,9.60
2019-04-12T15:21:47.699Z,9.60
2019-04-12T15:24:13.934Z,9.60
2019-04-12T15:26:40.169Z,9.60
2019-04-12T15:29:06.422Z,9.50
2019-04-12T15:31:32.648Z,9.50
2019-04-12T15:33:58.891Z,9.40
2019-04-12T15:36:25.111Z,9.40
2019-04-12T15:38:51.472Z,9.40
2019-04-12T15:41:17.708Z,9.30
2019-04-12T15:43:43.932Z,9.30
2019-04-12T15:46:10.202Z,9.40
2019-04-12T15:48:36.466Z,9.30
2019-04-12T15:51:02.817Z,9.30
2019-04-12T15:53:29.040Z,9.30
2019-04-12T15:55:55.291Z,9.30
2019-04-12T15:58:21.532Z,9.30
2019-04-12T16:01:10.760Z,9.20
2019-04-12T16:03:30.536Z,9.20
2019-04-12T16:05:57.986Z,9.20
2019-04-12T16:08:29.426Z,9.10
2019-04-12T16:11:04.496Z,9.00
2019-04-12T16:13:50.316Z,8.90
2019-04-12T16:17:10.864Z,8.90
2019-04-12T16:19:37.119Z,8.90
2019-04-12T16:22:03.368Z,8.80
2019-04-12T16:24:29.604Z,8.80
2019-04-12T16:26:56.535Z,8.80
2019-04-12T16:29:29.966Z,8.80
2019-04-12T16:32:10.062Z,8.70
2019-04-12T16:34:38.238Z,8.70
2019-04-12T16:37:06.389Z,8.60
2019-04-12T16:39:32.612Z,8.60
2019-04-12T16:41:58.842Z,8.60
2019-04-12T16:44:25.074Z,8.60
2019-04-12T16:46:51.402Z,8.60
2019-04-12T16:49:17.634Z,8.60
2019-04-12T16:51:43.995Z,8.60
2019-04-12T16:54:10.434Z,8.50
2019-04-12T16:56:36.676Z,8.50
2019-04-12T16:59:03.368Z,8.50
2019-04-12T17:01:36.554Z,8.50
2019-04-12T17:03:57.807Z,8.50
2019-04-12T17:06:24.566Z,8.40
2019-04-12T17:08:50.993Z,8.50
2019-04-12T17:11:17.440Z,8.40
2019-04-12T17:13:43.711Z,8.40
2019-04-12T17:16:09.955Z,8.40
2019-04-12T17:18:36.629Z,8.40
2019-04-12T17:21:03.172Z,8.40
2019-04-12T17:23:29.396Z,8.30
2019-04-12T17:25:57.810Z,8.30
2019-04-12T17:28:24.048Z,8.30
2019-04-12T17:30:50.292Z,8.30
2019-04-12T17:33:16.549Z,8.20
2019-04-12T17:35:42.783Z,8.30
2019-04-12T17:38:09.116Z,8.30
2019-04-12T17:40:35.368Z,8.30
2019-04-12T17:43:01.646Z,8.30
2019-04-12T17:45:28.016Z,8.30
2019-04-12T17:47:54.247Z,8.30
2019-04-12T17:50:39.400Z,8.30
2019-04-12T17:53:07.602Z,8.30
2019-04-12T17:55:44.969Z,8.30
2019-04-12T17:58:11.264Z,8.20
2019-04-12T18:00:57.774Z,8.20
2019-04-12T18:03:24.042Z,8.20
2019-04-12T18:05:50.961Z,8.20
2019-04-12T18:08:17.199Z,8.20
2019-04-12T18:10:43.832Z,8.20
2019-04-12T18:13:10.050Z,8.20
2019-04-12T18:15:36.313Z,8.10
2019-04-12T18:18:03.247Z,8.10
2019-04-12T18:20:29.891Z,8.10
2019-04-12T18:22:56.123Z,8.10
2019-04-12T18:25:24.168Z,8.10
2019-04-12T18:27:50.403Z,8.10
2019-04-12T18:30:17.871Z,8.10
2019-04-12T18:32:44.140Z,8.10
2019-04-12T18:35:11.797Z,8.10
2019-04-12T18:37:38.081Z,8.10
2019-04-12T18:40:06.257Z,8.10
2019-04-12T18:42:32.629Z,8.00
2019-04-12T18:44:59.335Z,8.00
2019-04-12T18:47:26.019Z,8.00
2019-04-12T18:49:52.326Z,8.00
2019-04-12T18:52:18.887Z,8.00
2019-04-12T18:54:45.131Z,8.10
2019-04-12T18:57:11.510Z,8.10
2019-04-12T18:59:38.515Z,8.10
2019-04-12T19:02:05.186Z,8.10
2019-04-12T19:04:32.119Z,8.10
2019-04-12T19:06:59.126Z,8.10
2019-04-12T19:09:26.174Z,8.10
2019-04-12T19:11:53.232Z,8.00
2019-04-12T19:14:21.818Z,8.00
2019-04-12T19:16:48.732Z,7.90
2019-04-12T19:19:15.691Z,8.00
2019-04-12T19:21:42.157Z,7.90
2019-04-12T19:24:08.727Z,7.90
2019-04-12T19:26:35.780Z,7.90
2019-04-12T19:29:03.937Z,7.90
2019-04-12T19:31:45.281Z,7.90
2019-04-12T19:34:31.813Z,7.90
2019-04-12T19:37:00.205Z,7.80
2019-04-12T19:39:48.839Z,7.80
2019-04-12T19:42:15.768Z,7.70
2019-04-12T19:44:43.406Z,7.70
2019-04-12T19:47:09.943Z,7.60
2019-04-12T19:49:36.380Z,7.60
2019-04-12T19:52:03.200Z,7.50
2019-04-12T19:54:29.924Z,7.50
2019-04-12T19:56:56.803Z,7.40
2019-04-12T19:59:23.405Z,7.40
2019-04-12T20:01:50.035Z,7.30
2019-04-12T20:04:16.379Z,7.30
2019-04-12T20:06:42.744Z,7.20
2019-04-12T20:09:09.528Z,7.20
2019-04-12T20:11:36.896Z,7.10
2019-04-12T20:14:03.276Z,7.10
2019-04-12T20:16:29.951Z,7.00
2019-04-12T20:18:56.265Z,7.00
2019-04-12T20:21:22.610Z,7.00
2019-04-12T20:23:48.890Z,7.00
2019-04-12T20:26:15.204Z,6.90
2019-04-12T20:28:41.666Z,6.90
2019-04-12T20:31:07.888Z,6.90
2019-04-12T20:33:34.177Z,6.90
2019-04-12T20:36:00.425Z,6.90
2019-04-12T20:38:26.707Z,6.90
2019-04-12T20:40:52.954Z,6.90
2019-04-12T20:43:19.291Z,7.00
2019-04-12T20:45:45.661Z,6.90
2019-04-12T20:48:11.900Z,6.80
2019-04-12T20:50:38.274Z,6.70
2019-04-12T20:53:04.528Z,6.70
2019-04-12T20:55:30.841Z,6.70
2019-04-12T20:57:57.093Z,6.70
2019-04-12T21:00:23.648Z,6.60
2019-04-12T21:02:49.908Z,6.60
2019-04-12T21:05:16.213Z,6.60
2019-04-12T21:07:42.586Z,6.70
2019-04-12T21:10:09.326Z,6.60
2019-04-12T21:12:35.572Z,6.60
2019-04-12T21:15:02.400Z,6.60
2019-04-12T21:17:28.627Z,6.50
2019-04-12T21:19:54.970Z,6.50
2019-04-12T21:22:21.279Z,6.40
2019-04-12T21:24:47.509Z,6.40
2019-04-12T21:27:13.744Z,6.40
2019-04-12T21:29:39.970Z,6.40
2019-04-12T21:32:06.253Z,6.40
2019-04-12T21:34:32.546Z,6.40
2019-04-12T21:36:58.848Z,6.40
2019-04-12T21:39:25.056Z,6.40
2019-04-12T21:41:51.309Z,6.40
2019-04-12T21:44:17.539Z,6.40
2019-04-12T21:46:43.811Z,6.30
2019-04-12T21:49:10.066Z,6.30
2019-04-12T21:51:36.297Z,6.30
2019-04-12T21:54:02.757Z,6.30
2019-04-12T21:56:29.007Z,6.20
2019-04-12T21:58:55.233Z,6.20
2019-04-12T22:01:22.490Z,6.20
2019-04-12T22:03:48.735Z,6.20
2019-04-12T22:06:15.060Z,6.10
2019-04-12T22:08:41.516Z,6.10
2019-04-12T22:11:07.784Z,6.10
2019-04-12T22:13:34.001Z,6.10
2019-04-12T22:16:00.236Z,6.10
2019-04-12T22:18:26.475Z,6.10
2019-04-12T22:20:52.731Z,6.00
2019-04-12T22:23:19.415Z,6.00
2019-04-12T22:25:45.652Z,6.00
2019-04-12T22:28:11.900Z,6.00
2019-04-12T22:30:38.170Z,6.00
2019-04-12T22:33:04.409Z,6.00
2019-04-12T22:35:30.752Z,6.00
2019-04-12T22:37:56.988Z,5.90
2019-04-12T22:40:23.233Z,5.90
2019-04-12T22:42:49.457Z,5.90
2019-04-12T22:45:15.719Z,5.90
2019-04-12T22:47:41.963Z,5.90
2019-04-12T22:50:08.499Z,5.90
2019-04-12T22:52:34.752Z,6.00
2019-04-12T22:55:02.887Z,6.00
2019-04-12T22:57:29.107Z,6.00
2019-04-12T22:59:55.397Z,6.00
2019-04-12T23:02:21.665Z,6.00
2019-04-12T23:04:47.909Z,6.00
2019-04-12T23:07:14.133Z,6.00
2019-04-12T23:09:40.374Z,5.90
2019-04-12T23:12:06.605Z,5.90
2019-04-12T23:14:32.827Z,5.90
2019-04-12T23:16:59.055Z,5.90
2019-04-12T23:19:25.318Z,5.90
2019-04-12T23:21:51.660Z,5.90
2019-04-12T23:24:17.894Z,5.90
2019-04-12T23:26:44.110Z,5.90
2019-04-12T23:29:10.339Z,5.90
2019-04-12T23:31:41.373Z,5.80
2019-04-12T23:34:16.857Z,5.80
2019-04-12T23:36:37.669Z,5.80
2019-04-12T23:39:05.089Z,5.80
2019-04-12T23:41:31.329Z,5.80
2019-04-12T23:43:57.557Z,5.80
2019-04-12T23:46:24.916Z,5.80
2019-04-12T23:48:51.268Z,5.80
2019-04-12T23:51:17.565Z,5.80
2019-04-12T23:53:43.822Z,5.80
2019-04-12T23:56:10.051Z,5.80
2019-04-12T23:58:37.623Z,5.80
